sensor_id;sensor_type;location;lat;lon;timestamp;P1;durP1;ratioP1;P2;durP2;ratioP2
9860;SDS011;4969;52.304;4.968;2023-09-18T00:00:15;15.30;;;13.95;;
9860;SDS011;4969;52.304;4.968;2023-09-18T00:02:42;15.13;;;13.82;;
9860;SDS011;4969;52.304;4.968;2023-09-18T00:05:09;15.88;;;14.48;;
9860;SDS011;4969;52.304;4.968;2023-09-18T00:07:36;15.90;;;14.48;;
9860;SDS011;4969;52.304;4.968;2023-09-18T00:10:03;16.65;;;14.25;;
9860;SDS011;4969;52.304;4.968;2023-09-18T00:12:30;16.60;;;15.15;;
9860;SDS011;4969;52.304;4.968;2023-09-18T00:14:57;13.35;;;12.10;;
9860;SDS011;4969;52.304;4.968;2023-09-18T00:17:24;12.85;;;11.82;;
9860;SDS011;4969;52.304;4.968;2023-09-18T00:19:51;15.27;;;13.82;;
9860;SDS011;4969;52.304;4.968;2023-09-18T00:22:18;13.73;;;12.35;;
9860;SDS011;4969;52.304;4.968;2023-09-18T00:24:46;14.30;;;12.98;;
9860;SDS011;4969;52.304;4.968;2023-09-18T00:27:12;13.38;;;12.27;;
9860;SDS011;4969;52.304;4.968;2023-09-18T00:29:40;13.38;;;12.18;;
9860;SDS011;4969;52.304;4.968;2023-09-18T00:32:08;14.52;;;13.10;;
9860;SDS011;4969;52.304;4.968;2023-09-18T00:34:34;12.70;;;11.68;;
9860;SDS011;4969;52.304;4.968;2023-09-18T00:37:01;12.93;;;11.73;;
9860;SDS011;4969;52.304;4.968;2023-09-18T00:39:28;11.98;;;10.85;;
9860;SDS011;4969;52.304;4.968;2023-09-18T00:41:54;13.45;;;12.15;;
9860;SDS011;4969;52.304;4.968;2023-09-18T00:44:21;13.48;;;12.20;;
9860;SDS011;4969;52.304;4.968;2023-09-18T00:46:48;13.43;;;12.10;;
9860;SDS011;4969;52.304;4.968;2023-09-18T00:49:16;12.88;;;11.88;;
9860;SDS011;4969;52.304;4.968;2023-09-18T00:51:45;13.35;;;12.20;;
9860;SDS011;4969;52.304;4.968;2023-09-18T00:54:12;14.93;;;13.45;;
9860;SDS011;4969;52.304;4.968;2023-09-18T00:56:43;12.73;;;11.65;;
9860;SDS011;4969;52.304;4.968;2023-09-18T00:59:09;14.25;;;12.95;;
9860;SDS011;4969;52.304;4.968;2023-09-18T01:01:38;12.90;;;11.80;;
9860;SDS011;4969;52.304;4.968;2023-09-18T01:04:07;14.50;;;13.25;;
9860;SDS011;4969;52.304;4.968;2023-09-18T01:06:36;14.05;;;12.73;;
9860;SDS011;4969;52.304;4.968;2023-09-18T01:09:03;12.70;;;11.40;;
9860;SDS011;4969;52.304;4.968;2023-09-18T01:11:39;11.23;;;10.13;;
9860;SDS011;4969;52.304;4.968;2023-09-18T01:14:13;13.20;;;12.10;;
9860;SDS011;4969;52.304;4.968;2023-09-18T01:16:47;12.02;;;11.05;;
9860;SDS011;4969;52.304;4.968;2023-09-18T01:19:33;11.77;;;10.88;;
9860;SDS011;4969;52.304;4.968;2023-09-18T01:22:03;11.95;;;10.93;;
9860;SDS011;4969;52.304;4.968;2023-09-18T01:24:31;11.95;;;10.98;;
9860;SDS011;4969;52.304;4.968;2023-09-18T01:26:58;11.25;;;10.23;;
9860;SDS011;4969;52.304;4.968;2023-09-18T01:29:25;13.38;;;12.23;;
9860;SDS011;4969;52.304;4.968;2023-09-18T01:31:51;12.15;;;11.20;;
9860;SDS011;4969;52.304;4.968;2023-09-18T01:34:18;12.82;;;11.73;;
9860;SDS011;4969;52.304;4.968;2023-09-18T01:36:47;14.82;;;12.32;;
9860;SDS011;4969;52.304;4.968;2023-09-18T01:39:16;11.90;;;10.90;;
9860;SDS011;4969;52.304;4.968;2023-09-18T01:41:45;11.40;;;10.43;;
9860;SDS011;4969;52.304;4.968;2023-09-18T01:44:12;12.68;;;11.02;;
9860;SDS011;4969;52.304;4.968;2023-09-18T01:46:39;11.25;;;10.20;;
9860;SDS011;4969;52.304;4.968;2023-09-18T01:49:07;12.95;;;11.70;;
9860;SDS011;4969;52.304;4.968;2023-09-18T01:51:33;9.45;;;8.75;;
9860;SDS011;4969;52.304;4.968;2023-09-18T01:54:00;12.43;;;11.43;;
9860;SDS011;4969;52.304;4.968;2023-09-18T01:56:27;12.40;;;11.40;;
9860;SDS011;4969;52.304;4.968;2023-09-18T01:58:55;13.32;;;12.13;;
9860;SDS011;4969;52.304;4.968;2023-09-18T02:01:21;13.35;;;12.05;;
9860;SDS011;4969;52.304;4.968;2023-09-18T02:03:48;14.05;;;12.68;;
9860;SDS011;4969;52.304;4.968;2023-09-18T02:06:14;10.18;;;8.55;;
9860;SDS011;4969;52.304;4.968;2023-09-18T02:08:41;11.50;;;10.50;;
9860;SDS011;4969;52.304;4.968;2023-09-18T02:11:08;12.90;;;11.63;;
9860;SDS011;4969;52.304;4.968;2023-09-18T02:13:34;11.07;;;10.07;;
9860;SDS011;4969;52.304;4.968;2023-09-18T02:16:02;16.98;;;12.75;;
9860;SDS011;4969;52.304;4.968;2023-09-18T02:18:29;12.05;;;11.05;;
9860;SDS011;4969;52.304;4.968;2023-09-18T02:20:56;12.65;;;11.50;;
9860;SDS011;4969;52.304;4.968;2023-09-18T02:23:22;10.88;;;10.07;;
9860;SDS011;4969;52.304;4.968;2023-09-18T02:25:54;12.45;;;11.35;;
9860;SDS011;4969;52.304;4.968;2023-09-18T02:28:21;12.95;;;11.68;;
9860;SDS011;4969;52.304;4.968;2023-09-18T02:30:48;10.52;;;9.73;;
9860;SDS011;4969;52.304;4.968;2023-09-18T02:33:16;12.68;;;11.57;;
9860;SDS011;4969;52.304;4.968;2023-09-18T02:35:42;13.90;;;12.80;;
9860;SDS011;4969;52.304;4.968;2023-09-18T02:38:09;14.70;;;13.57;;
9860;SDS011;4969;52.304;4.968;2023-09-18T02:40:36;10.60;;;9.70;;
9860;SDS011;4969;52.304;4.968;2023-09-18T02:43:02;15.02;;;13.60;;
9860;SDS011;4969;52.304;4.968;2023-09-18T02:45:29;13.82;;;12.52;;
9860;SDS011;4969;52.304;4.968;2023-09-18T02:47:56;13.77;;;11.93;;
9860;SDS011;4969;52.304;4.968;2023-09-18T02:50:24;12.32;;;11.20;;
9860;SDS011;4969;52.304;4.968;2023-09-18T02:52:50;9.82;;;8.93;;
9860;SDS011;4969;52.304;4.968;2023-09-18T02:55:17;9.05;;;8.40;;
9860;SDS011;4969;52.304;4.968;2023-09-18T02:57:43;12.75;;;11.68;;
9860;SDS011;4969;52.304;4.968;2023-09-18T03:00:10;11.63;;;10.60;;
9860;SDS011;4969;52.304;4.968;2023-09-18T03:02:37;12.20;;;11.25;;
9860;SDS011;4969;52.304;4.968;2023-09-18T03:05:04;13.43;;;12.43;;
9860;SDS011;4969;52.304;4.968;2023-09-18T03:07:33;10.55;;;9.65;;
9860;SDS011;4969;52.304;4.968;2023-09-18T03:09:59;15.40;;;14.00;;
9860;SDS011;4969;52.304;4.968;2023-09-18T03:12:26;16.00;;;14.38;;
9860;SDS011;4969;52.304;4.968;2023-09-18T03:14:53;11.05;;;10.10;;
9860;SDS011;4969;52.304;4.968;2023-09-18T03:17:20;15.20;;;13.80;;
9860;SDS011;4969;52.304;4.968;2023-09-18T03:19:47;15.82;;;14.05;;
9860;SDS011;4969;52.304;4.968;2023-09-18T03:22:14;14.07;;;12.73;;
9860;SDS011;4969;52.304;4.968;2023-09-18T03:24:42;11.80;;;10.80;;
9860;SDS011;4969;52.304;4.968;2023-09-18T03:27:08;14.55;;;13.20;;
9860;SDS011;4969;52.304;4.968;2023-09-18T03:29:35;15.23;;;13.82;;
9860;SDS011;4969;52.304;4.968;2023-09-18T03:32:01;13.38;;;12.18;;
9860;SDS011;4969;52.304;4.968;2023-09-18T03:34:28;16.08;;;14.63;;
9860;SDS011;4969;52.304;4.968;2023-09-18T03:36:55;14.98;;;13.65;;
9860;SDS011;4969;52.304;4.968;2023-09-18T03:39:22;15.82;;;14.30;;
9860;SDS011;4969;52.304;4.968;2023-09-18T03:41:50;13.85;;;12.70;;
9860;SDS011;4969;52.304;4.968;2023-09-18T03:44:16;15.57;;;14.15;;
9860;SDS011;4969;52.304;4.968;2023-09-18T03:46:43;10.65;;;9.55;;
9860;SDS011;4969;52.304;4.968;2023-09-18T03:49:09;13.60;;;12.57;;
9860;SDS011;4969;52.304;4.968;2023-09-18T03:51:36;13.50;;;12.35;;
9860;SDS011;4969;52.304;4.968;2023-09-18T03:54:03;11.70;;;10.68;;
9860;SDS011;4969;52.304;4.968;2023-09-18T03:56:29;11.82;;;10.27;;
9860;SDS011;4969;52.304;4.968;2023-09-18T03:58:57;12.48;;;11.18;;
9860;SDS011;4969;52.304;4.968;2023-09-18T04:01:26;10.50;;;9.60;;
9860;SDS011;4969;52.304;4.968;2023-09-18T04:03:52;12.30;;;11.20;;
9860;SDS011;4969;52.304;4.968;2023-09-18T04:06:20;10.13;;;9.10;;
9860;SDS011;4969;52.304;4.968;2023-09-18T04:08:49;10.40;;;9.50;;
9860;SDS011;4969;52.304;4.968;2023-09-18T04:11:16;11.82;;;10.77;;
9860;SDS011;4969;52.304;4.968;2023-09-18T04:13:43;11.98;;;10.75;;
9860;SDS011;4969;52.304;4.968;2023-09-18T04:16:11;11.88;;;10.63;;
9860;SDS011;4969;52.304;4.968;2023-09-18T04:18:41;10.50;;;9.70;;
9860;SDS011;4969;52.304;4.968;2023-09-18T04:21:08;13.88;;;12.48;;
9860;SDS011;4969;52.304;4.968;2023-09-18T04:23:35;13.88;;;12.68;;
9860;SDS011;4969;52.304;4.968;2023-09-18T04:26:02;17.63;;;15.90;;
9860;SDS011;4969;52.304;4.968;2023-09-18T04:28:29;15.32;;;13.73;;
9860;SDS011;4969;52.304;4.968;2023-09-18T04:30:55;13.95;;;10.93;;
9860;SDS011;4969;52.304;4.968;2023-09-18T04:33:23;13.02;;;11.43;;
9860;SDS011;4969;52.304;4.968;2023-09-18T04:35:50;11.60;;;8.90;;
9860;SDS011;4969;52.304;4.968;2023-09-18T04:38:17;7.93;;;7.10;;
9860;SDS011;4969;52.304;4.968;2023-09-18T04:40:44;9.68;;;8.65;;
9860;SDS011;4969;52.304;4.968;2023-09-18T04:43:11;6.80;;;6.07;;
9860;SDS011;4969;52.304;4.968;2023-09-18T04:45:37;4.55;;;4.00;;
9860;SDS011;4969;52.304;4.968;2023-09-18T04:48:04;6.15;;;4.13;;
9860;SDS011;4969;52.304;4.968;2023-09-18T04:50:35;4.68;;;4.10;;
9860;SDS011;4969;52.304;4.968;2023-09-18T04:53:02;4.72;;;3.90;;
9860;SDS011;4969;52.304;4.968;2023-09-18T04:55:29;6.18;;;4.38;;
9860;SDS011;4969;52.304;4.968;2023-09-18T04:57:56;5.50;;;4.50;;
9860;SDS011;4969;52.304;4.968;2023-09-18T05:00:23;6.53;;;4.68;;
9860;SDS011;4969;52.304;4.968;2023-09-18T05:02:51;6.05;;;4.75;;
9860;SDS011;4969;52.304;4.968;2023-09-18T05:05:18;7.20;;;5.35;;
9860;SDS011;4969;52.304;4.968;2023-09-18T05:07:46;5.75;;;4.68;;
9860;SDS011;4969;52.304;4.968;2023-09-18T05:10:12;5.88;;;5.25;;
9860;SDS011;4969;52.304;4.968;2023-09-18T05:12:39;6.15;;;5.55;;
9860;SDS011;4969;52.304;4.968;2023-09-18T05:15:07;6.88;;;6.22;;
9860;SDS011;4969;52.304;4.968;2023-09-18T05:17:41;9.50;;;8.50;;
9860;SDS011;4969;52.304;4.968;2023-09-18T05:20:09;11.98;;;10.82;;
9860;SDS011;4969;52.304;4.968;2023-09-18T05:22:38;9.95;;;8.82;;
9860;SDS011;4969;52.304;4.968;2023-09-18T05:25:07;12.27;;;10.98;;
9860;SDS011;4969;52.304;4.968;2023-09-18T05:27:35;8.63;;;8.00;;
9860;SDS011;4969;52.304;4.968;2023-09-18T05:30:01;9.32;;;8.60;;
9860;SDS011;4969;52.304;4.968;2023-09-18T05:32:30;8.65;;;7.88;;
9860;SDS011;4969;52.304;4.968;2023-09-18T05:34:57;9.48;;;8.68;;
9860;SDS011;4969;52.304;4.968;2023-09-18T05:37:30;9.10;;;8.30;;
9860;SDS011;4969;52.304;4.968;2023-09-18T05:39:56;8.18;;;7.38;;
9860;SDS011;4969;52.304;4.968;2023-09-18T05:42:24;13.05;;;9.25;;
9860;SDS011;4969;52.304;4.968;2023-09-18T05:44:51;9.32;;;8.43;;
9860;SDS011;4969;52.304;4.968;2023-09-18T05:47:17;11.60;;;8.50;;
9860;SDS011;4969;52.304;4.968;2023-09-18T05:49:44;10.65;;;9.45;;
9860;SDS011;4969;52.304;4.968;2023-09-18T05:52:10;10.82;;;9.07;;
9860;SDS011;4969;52.304;4.968;2023-09-18T05:54:37;11.70;;;10.52;;
9860;SDS011;4969;52.304;4.968;2023-09-18T05:57:04;11.38;;;10.38;;
9860;SDS011;4969;52.304;4.968;2023-09-18T05:59:33;14.50;;;13.10;;
9860;SDS011;4969;52.304;4.968;2023-09-18T06:02:00;10.27;;;9.40;;
9860;SDS011;4969;52.304;4.968;2023-09-18T06:04:26;9.35;;;8.63;;
9860;SDS011;4969;52.304;4.968;2023-09-18T06:06:53;13.70;;;12.48;;
9860;SDS011;4969;52.304;4.968;2023-09-18T06:09:19;14.07;;;12.60;;
9860;SDS011;4969;52.304;4.968;2023-09-18T06:11:47;11.18;;;10.20;;
9860;SDS011;4969;52.304;4.968;2023-09-18T06:14:14;14.70;;;13.27;;
9860;SDS011;4969;52.304;4.968;2023-09-18T06:16:42;12.80;;;11.57;;
9860;SDS011;4969;52.304;4.968;2023-09-18T06:19:08;13.85;;;12.55;;
9860;SDS011;4969;52.304;4.968;2023-09-18T06:21:35;11.43;;;10.27;;
9860;SDS011;4969;52.304;4.968;2023-09-18T06:24:02;10.82;;;9.60;;
9860;SDS011;4969;52.304;4.968;2023-09-18T06:26:28;10.52;;;9.63;;
9860;SDS011;4969;52.304;4.968;2023-09-18T06:28:55;11.15;;;10.18;;
9860;SDS011;4969;52.304;4.968;2023-09-18T06:31:21;10.27;;;9.38;;
9860;SDS011;4969;52.304;4.968;2023-09-18T06:33:50;11.48;;;10.32;;
9860;SDS011;4969;52.304;4.968;2023-09-18T06:36:16;12.70;;;9.95;;
9860;SDS011;4969;52.304;4.968;2023-09-18T06:38:43;12.00;;;10.90;;
9860;SDS011;4969;52.304;4.968;2023-09-18T06:41:09;10.60;;;9.70;;
9860;SDS011;4969;52.304;4.968;2023-09-18T06:43:36;13.50;;;12.20;;
9860;SDS011;4969;52.304;4.968;2023-09-18T06:46:02;10.30;;;9.35;;
9860;SDS011;4969;52.304;4.968;2023-09-18T06:48:29;10.77;;;9.80;;
9860;SDS011;4969;52.304;4.968;2023-09-18T06:50:58;12.38;;;9.63;;
9860;SDS011;4969;52.304;4.968;2023-09-18T06:53:26;13.32;;;11.98;;
9860;SDS011;4969;52.304;4.968;2023-09-18T06:55:53;9.75;;;8.80;;
9860;SDS011;4969;52.304;4.968;2023-09-18T06:58:19;12.25;;;11.25;;
9860;SDS011;4969;52.304;4.968;2023-09-18T07:00:46;9.07;;;8.15;;
9860;SDS011;4969;52.304;4.968;2023-09-18T07:03:15;10.07;;;9.07;;
9860;SDS011;4969;52.304;4.968;2023-09-18T07:05:42;9.15;;;8.32;;
9860;SDS011;4969;52.304;4.968;2023-09-18T07:08:10;11.15;;;9.93;;
9860;SDS011;4969;52.304;4.968;2023-09-18T07:10:38;11.02;;;10.13;;
9860;SDS011;4969;52.304;4.968;2023-09-18T07:13:05;10.07;;;9.20;;
9860;SDS011;4969;52.304;4.968;2023-09-18T07:15:31;8.45;;;7.68;;
9860;SDS011;4969;52.304;4.968;2023-09-18T07:17:58;8.00;;;7.18;;
9860;SDS011;4969;52.304;4.968;2023-09-18T07:20:25;7.22;;;6.60;;
9860;SDS011;4969;52.304;4.968;2023-09-18T07:22:51;6.85;;;6.07;;
9860;SDS011;4969;52.304;4.968;2023-09-18T07:25:19;7.07;;;6.47;;
9860;SDS011;4969;52.304;4.968;2023-09-18T07:27:46;8.98;;;7.97;;
9860;SDS011;4969;52.304;4.968;2023-09-18T07:30:13;7.60;;;6.97;;
9860;SDS011;4969;52.304;4.968;2023-09-18T07:32:42;8.48;;;7.70;;
9860;SDS011;4969;52.304;4.968;2023-09-18T07:35:09;7.50;;;6.80;;
9860;SDS011;4969;52.304;4.968;2023-09-18T07:37:36;10.40;;;8.82;;
9860;SDS011;4969;52.304;4.968;2023-09-18T07:40:03;8.48;;;7.65;;
9860;SDS011;4969;52.304;4.968;2023-09-18T07:42:32;9.70;;;8.38;;
9860;SDS011;4969;52.304;4.968;2023-09-18T07:44:59;6.88;;;6.25;;
9860;SDS011;4969;52.304;4.968;2023-09-18T07:47:25;8.48;;;7.70;;
9860;SDS011;4969;52.304;4.968;2023-09-18T07:49:52;7.22;;;6.63;;
9860;SDS011;4969;52.304;4.968;2023-09-18T07:52:19;7.97;;;6.63;;
9860;SDS011;4969;52.304;4.968;2023-09-18T07:54:46;8.27;;;7.45;;
9860;SDS011;4969;52.304;4.968;2023-09-18T07:57:13;6.50;;;5.88;;
9860;SDS011;4969;52.304;4.968;2023-09-18T07:59:41;8.63;;;6.65;;
9860;SDS011;4969;52.304;4.968;2023-09-18T08:02:09;6.78;;;6.03;;
9860;SDS011;4969;52.304;4.968;2023-09-18T08:04:35;6.95;;;6.10;;
9860;SDS011;4969;52.304;4.968;2023-09-18T08:07:02;7.88;;;6.55;;
9860;SDS011;4969;52.304;4.968;2023-09-18T08:09:30;6.43;;;5.57;;
9860;SDS011;4969;52.304;4.968;2023-09-18T08:12:01;5.85;;;5.35;;
9860;SDS011;4969;52.304;4.968;2023-09-18T08:14:28;6.90;;;5.15;;
9860;SDS011;4969;52.304;4.968;2023-09-18T08:16:57;5.90;;;5.40;;
9860;SDS011;4969;52.304;4.968;2023-09-18T08:19:25;6.07;;;5.57;;
9860;SDS011;4969;52.304;4.968;2023-09-18T08:21:52;5.80;;;5.20;;
9860;SDS011;4969;52.304;4.968;2023-09-18T08:24:19;6.78;;;5.13;;
9860;SDS011;4969;52.304;4.968;2023-09-18T08:26:46;6.78;;;5.15;;
9860;SDS011;4969;52.304;4.968;2023-09-18T08:29:12;5.82;;;5.32;;
9860;SDS011;4969;52.304;4.968;2023-09-18T08:31:39;6.00;;;5.10;;
9860;SDS011;4969;52.304;4.968;2023-09-18T08:34:07;5.22;;;4.82;;
9860;SDS011;4969;52.304;4.968;2023-09-18T08:36:33;5.60;;;4.63;;
9860;SDS011;4969;52.304;4.968;2023-09-18T08:39:00;4.97;;;4.32;;
9860;SDS011;4969;52.304;4.968;2023-09-18T08:41:28;4.22;;;3.83;;
9860;SDS011;4969;52.304;4.968;2023-09-18T08:43:59;5.80;;;4.20;;
9860;SDS011;4969;52.304;4.968;2023-09-18T08:46:28;4.70;;;4.30;;
9860;SDS011;4969;52.304;4.968;2023-09-18T08:48:55;4.38;;;4.03;;
9860;SDS011;4969;52.304;4.968;2023-09-18T08:51:24;6.30;;;4.43;;
9860;SDS011;4969;52.304;4.968;2023-09-18T08:53:51;6.32;;;4.55;;
9860;SDS011;4969;52.304;4.968;2023-09-18T08:56:20;4.80;;;3.83;;
9860;SDS011;4969;52.304;4.968;2023-09-18T08:58:47;4.82;;;4.43;;
9860;SDS011;4969;52.304;4.968;2023-09-18T09:01:14;5.65;;;4.10;;
9860;SDS011;4969;52.304;4.968;2023-09-18T09:03:41;4.47;;;3.90;;
9860;SDS011;4969;52.304;4.968;2023-09-18T09:06:10;4.40;;;4.10;;
9860;SDS011;4969;52.304;4.968;2023-09-18T09:08:39;5.95;;;4.28;;
9860;SDS011;4969;52.304;4.968;2023-09-18T09:11:06;5.63;;;4.30;;
9860;SDS011;4969;52.304;4.968;2023-09-18T09:13:32;4.78;;;4.03;;
9860;SDS011;4969;52.304;4.968;2023-09-18T09:15:59;4.40;;;4.00;;
9860;SDS011;4969;52.304;4.968;2023-09-18T09:18:26;7.03;;;4.43;;
9860;SDS011;4969;52.304;4.968;2023-09-18T09:20:55;4.43;;;4.05;;
9860;SDS011;4969;52.304;4.968;2023-09-18T09:23:23;7.15;;;3.97;;
9860;SDS011;4969;52.304;4.968;2023-09-18T09:25:52;8.00;;;4.20;;
9860;SDS011;4969;52.304;4.968;2023-09-18T09:28:28;6.03;;;4.57;;
9860;SDS011;4969;52.304;4.968;2023-09-18T09:30:59;5.60;;;4.30;;
9860;SDS011;4969;52.304;4.968;2023-09-18T09:33:27;4.45;;;4.03;;
9860;SDS011;4969;52.304;4.968;2023-09-18T09:35:54;4.63;;;4.22;;
9860;SDS011;4969;52.304;4.968;2023-09-18T09:38:27;4.85;;;3.95;;
9860;SDS011;4969;52.304;4.968;2023-09-18T09:40:58;5.65;;;4.20;;
9860;SDS011;4969;52.304;4.968;2023-09-18T09:43:25;4.28;;;3.28;;
9860;SDS011;4969;52.304;4.968;2023-09-18T09:45:56;4.65;;;3.60;;
9860;SDS011;4969;52.304;4.968;2023-09-18T09:48:23;3.97;;;3.10;;
9860;SDS011;4969;52.304;4.968;2023-09-18T09:50:51;3.85;;;3.10;;
9860;SDS011;4969;52.304;4.968;2023-09-18T09:53:20;6.10;;;3.15;;
9860;SDS011;4969;52.304;4.968;2023-09-18T09:56:13;6.78;;;2.90;;
9860;SDS011;4969;52.304;4.968;2023-09-18T09:58:43;3.83;;;3.40;;
9860;SDS011;4969;52.304;4.968;2023-09-18T10:01:11;4.07;;;3.20;;
9860;SDS011;4969;52.304;4.968;2023-09-18T10:03:43;3.65;;;3.17;;
9860;SDS011;4969;52.304;4.968;2023-09-18T10:06:10;4.22;;;3.50;;
9860;SDS011;4969;52.304;4.968;2023-09-18T10:08:38;4.18;;;3.03;;
9860;SDS011;4969;52.304;4.968;2023-09-18T10:11:07;3.38;;;2.70;;
9860;SDS011;4969;52.304;4.968;2023-09-18T10:13:40;4.93;;;2.90;;
9860;SDS011;4969;52.304;4.968;2023-09-18T10:16:11;2.63;;;2.40;;
9860;SDS011;4969;52.304;4.968;2023-09-18T10:18:42;3.03;;;2.60;;
9860;SDS011;4969;52.304;4.968;2023-09-18T10:21:17;3.53;;;2.70;;
9860;SDS011;4969;52.304;4.968;2023-09-18T10:23:58;3.30;;;3.10;;
9860;SDS011;4969;52.304;4.968;2023-09-18T10:26:33;3.45;;;2.60;;
9860;SDS011;4969;52.304;4.968;2023-09-18T10:29:08;3.63;;;2.80;;
9860;SDS011;4969;52.304;4.968;2023-09-18T10:31:38;3.95;;;3.03;;
9860;SDS011;4969;52.304;4.968;2023-09-18T10:34:06;4.45;;;3.00;;
9860;SDS011;4969;52.304;4.968;2023-09-18T10:36:33;3.90;;;3.30;;
9860;SDS011;4969;52.304;4.968;2023-09-18T10:39:00;3.40;;;3.10;;
9860;SDS011;4969;52.304;4.968;2023-09-18T10:41:34;4.50;;;3.30;;
9860;SDS011;4969;52.304;4.968;2023-09-18T10:44:02;3.33;;;2.97;;
9860;SDS011;4969;52.304;4.968;2023-09-18T10:46:30;2.90;;;2.70;;
9860;SDS011;4969;52.304;4.968;2023-09-18T10:48:57;3.20;;;2.90;;
9860;SDS011;4969;52.304;4.968;2023-09-18T10:51:25;5.55;;;2.88;;
9860;SDS011;4969;52.304;4.968;2023-09-18T10:53:52;6.47;;;3.20;;
9860;SDS011;4969;52.304;4.968;2023-09-18T10:56:19;4.70;;;3.30;;
9860;SDS011;4969;52.304;4.968;2023-09-18T10:58:48;2.92;;;2.70;;
9860;SDS011;4969;52.304;4.968;2023-09-18T11:01:23;5.95;;;3.10;;
9860;SDS011;4969;52.304;4.968;2023-09-18T11:03:52;3.58;;;3.28;;
9860;SDS011;4969;52.304;4.968;2023-09-18T11:06:18;5.43;;;3.25;;
9860;SDS011;4969;52.304;4.968;2023-09-18T11:08:49;3.00;;;2.78;;
9860;SDS011;4969;52.304;4.968;2023-09-18T11:11:18;4.72;;;3.30;;
9860;SDS011;4969;52.304;4.968;2023-09-18T11:13:46;5.85;;;3.35;;
9860;SDS011;4969;52.304;4.968;2023-09-18T11:16:33;4.82;;;3.20;;
9860;SDS011;4969;52.304;4.968;2023-09-18T11:19:12;4.57;;;3.20;;
9860;SDS011;4969;52.304;4.968;2023-09-18T11:21:44;3.70;;;3.10;;
9860;SDS011;4969;52.304;4.968;2023-09-18T11:24:15;4.97;;;3.22;;
9860;SDS011;4969;52.304;4.968;2023-09-18T11:26:44;4.75;;;3.22;;
9860;SDS011;4969;52.304;4.968;2023-09-18T11:29:15;7.25;;;3.30;;
9860;SDS011;4969;52.304;4.968;2023-09-18T11:31:45;3.85;;;2.92;;
9860;SDS011;4969;52.304;4.968;2023-09-18T11:34:14;3.22;;;3.03;;
9860;SDS011;4969;52.304;4.968;2023-09-18T11:36:45;4.32;;;2.58;;
9860;SDS011;4969;52.304;4.968;2023-09-18T11:39:12;3.95;;;2.60;;
9860;SDS011;4969;52.304;4.968;2023-09-18T11:41:39;2.97;;;2.53;;
9860;SDS011;4969;52.304;4.968;2023-09-18T11:47:12;3.13;;;2.60;;
9860;SDS011;4969;52.304;4.968;2023-09-18T11:49:47;3.20;;;2.90;;
9860;SDS011;4969;52.304;4.968;2023-09-18T11:52:20;4.82;;;3.15;;
9860;SDS011;4969;52.304;4.968;2023-09-18T11:54:47;2.80;;;2.60;;
9860;SDS011;4969;52.304;4.968;2023-09-18T11:57:15;2.88;;;2.60;;
9860;SDS011;4969;52.304;4.968;2023-09-18T11:59:45;4.65;;;2.80;;
9860;SDS011;4969;52.304;4.968;2023-09-18T12:02:12;3.20;;;2.65;;
9860;SDS011;4969;52.304;4.968;2023-09-18T12:04:45;4.60;;;3.20;;
9860;SDS011;4969;52.304;4.968;2023-09-18T12:07:12;6.68;;;3.42;;
9860;SDS011;4969;52.304;4.968;2023-09-18T12:09:39;5.57;;;3.50;;
9860;SDS011;4969;52.304;4.968;2023-09-18T12:12:06;3.25;;;2.95;;
9860;SDS011;4969;52.304;4.968;2023-09-18T12:14:33;4.97;;;3.35;;
9860;SDS011;4969;52.304;4.968;2023-09-18T12:17:02;5.70;;;3.28;;
9860;SDS011;4969;52.304;4.968;2023-09-18T12:19:29;3.83;;;3.40;;
9860;SDS011;4969;52.304;4.968;2023-09-18T12:21:56;3.30;;;3.00;;
9860;SDS011;4969;52.304;4.968;2023-09-18T12:24:23;4.60;;;3.13;;
9860;SDS011;4969;52.304;4.968;2023-09-18T12:26:50;4.10;;;3.10;;
9860;SDS011;4969;52.304;4.968;2023-09-18T12:29:18;4.30;;;2.92;;
9860;SDS011;4969;52.304;4.968;2023-09-18T12:31:44;5.63;;;3.83;;
9860;SDS011;4969;52.304;4.968;2023-09-18T12:34:15;3.95;;;3.65;;
9860;SDS011;4969;52.304;4.968;2023-09-18T12:36:42;5.43;;;3.35;;
9860;SDS011;4969;52.304;4.968;2023-09-18T12:39:12;5.32;;;3.80;;
9860;SDS011;4969;52.304;4.968;2023-09-18T12:41:40;4.10;;;3.80;;
9860;SDS011;4969;52.304;4.968;2023-09-18T12:44:06;3.85;;;3.25;;
9860;SDS011;4969;52.304;4.968;2023-09-18T12:46:34;5.65;;;3.38;;
9860;SDS011;4969;52.304;4.968;2023-09-18T12:49:15;4.22;;;3.33;;
9860;SDS011;4969;52.304;4.968;2023-09-18T12:51:43;5.22;;;3.28;;
9860;SDS011;4969;52.304;4.968;2023-09-18T12:54:11;3.88;;;3.17;;
9860;SDS011;4969;52.304;4.968;2023-09-18T12:56:41;3.95;;;3.28;;
9860;SDS011;4969;52.304;4.968;2023-09-18T12:59:08;4.95;;;3.10;;
9860;SDS011;4969;52.304;4.968;2023-09-18T13:01:35;4.10;;;3.00;;
9860;SDS011;4969;52.304;4.968;2023-09-18T13:04:03;3.33;;;3.03;;
9860;SDS011;4969;52.304;4.968;2023-09-18T13:06:32;4.82;;;3.22;;
9860;SDS011;4969;52.304;4.968;2023-09-18T13:14:27;3.85;;;3.25;;
9860;SDS011;4969;52.304;4.968;2023-09-18T13:16:59;3.60;;;2.80;;
9860;SDS011;4969;52.304;4.968;2023-09-18T13:19:29;3.58;;;2.97;;
9860;SDS011;4969;52.304;4.968;2023-09-18T13:21:57;4.18;;;3.20;;
9860;SDS011;4969;52.304;4.968;2023-09-18T13:24:28;5.00;;;3.28;;
9860;SDS011;4969;52.304;4.968;2023-09-18T13:26:56;6.28;;;3.45;;
9860;SDS011;4969;52.304;4.968;2023-09-18T13:29:23;3.95;;;3.15;;
9860;SDS011;4969;52.304;4.968;2023-09-18T13:31:50;3.47;;;3.20;;
9860;SDS011;4969;52.304;4.968;2023-09-18T13:34:17;4.45;;;2.70;;
9860;SDS011;4969;52.304;4.968;2023-09-18T13:36:44;4.43;;;3.30;;
9860;SDS011;4969;52.304;4.968;2023-09-18T13:39:12;3.08;;;2.78;;
9860;SDS011;4969;52.304;4.968;2023-09-18T13:41:42;4.97;;;3.00;;
9860;SDS011;4969;52.304;4.968;2023-09-18T13:44:09;4.28;;;2.88;;
9860;SDS011;4969;52.304;4.968;2023-09-18T13:46:36;5.00;;;2.58;;
9860;SDS011;4969;52.304;4.968;2023-09-18T13:49:03;4.45;;;3.00;;
9860;SDS011;4969;52.304;4.968;2023-09-18T13:51:30;2.83;;;2.53;;
9860;SDS011;4969;52.304;4.968;2023-09-18T13:53:57;3.97;;;2.75;;
9860;SDS011;4969;52.304;4.968;2023-09-18T13:56:26;3.47;;;2.90;;
9860;SDS011;4969;52.304;4.968;2023-09-18T13:58:54;5.55;;;2.75;;
9860;SDS011;4969;52.304;4.968;2023-09-18T14:01:21;3.42;;;3.10;;
9860;SDS011;4969;52.304;4.968;2023-09-18T14:03:48;3.75;;;2.95;;
9860;SDS011;4969;52.304;4.968;2023-09-18T14:06:15;4.90;;;2.70;;
9860;SDS011;4969;52.304;4.968;2023-09-18T14:08:42;2.47;;;2.38;;
9860;SDS011;4969;52.304;4.968;2023-09-18T14:11:09;3.15;;;2.83;;
9860;SDS011;4969;52.304;4.968;2023-09-18T14:13:36;4.18;;;3.10;;
9860;SDS011;4969;52.304;4.968;2023-09-18T14:16:03;3.22;;;2.90;;
9860;SDS011;4969;52.304;4.968;2023-09-18T14:18:31;3.35;;;2.80;;
9860;SDS011;4969;52.304;4.968;2023-09-18T14:20:57;3.50;;;3.00;;
9860;SDS011;4969;52.304;4.968;2023-09-18T14:23:24;4.72;;;3.10;;
9860;SDS011;4969;52.304;4.968;2023-09-18T14:25:51;3.80;;;3.40;;
9860;SDS011;4969;52.304;4.968;2023-09-18T14:28:19;3.72;;;3.38;;
9860;SDS011;4969;52.304;4.968;2023-09-18T14:30:47;6.72;;;3.55;;
9860;SDS011;4969;52.304;4.968;2023-09-18T14:33:14;6.57;;;4.05;;
9860;SDS011;4969;52.304;4.968;2023-09-18T14:35:40;4.28;;;3.65;;
9860;SDS011;4969;52.304;4.968;2023-09-18T14:38:07;3.03;;;2.72;;
9860;SDS011;4969;52.304;4.968;2023-09-18T14:40:34;5.40;;;3.10;;
9860;SDS011;4969;52.304;4.968;2023-09-18T14:43:01;7.35;;;3.28;;
9860;SDS011;4969;52.304;4.968;2023-09-18T14:45:30;3.47;;;2.90;;
9860;SDS011;4969;52.304;4.968;2023-09-18T14:47:58;4.38;;;3.10;;
9860;SDS011;4969;52.304;4.968;2023-09-18T14:50:24;3.30;;;3.00;;
9860;SDS011;4969;52.304;4.968;2023-09-18T14:52:51;3.80;;;2.90;;
9860;SDS011;4969;52.304;4.968;2023-09-18T14:55:18;4.43;;;3.03;;
9860;SDS011;4969;52.304;4.968;2023-09-18T14:57:44;5.20;;;3.20;;
9860;SDS011;4969;52.304;4.968;2023-09-18T15:00:11;3.22;;;3.00;;
9860;SDS011;4969;52.304;4.968;2023-09-18T15:02:40;3.60;;;3.30;;
9860;SDS011;4969;52.304;4.968;2023-09-18T15:05:08;4.95;;;3.47;;
9860;SDS011;4969;52.304;4.968;2023-09-18T15:07:37;4.18;;;3.80;;
9860;SDS011;4969;52.304;4.968;2023-09-18T15:10:04;4.82;;;3.40;;
9860;SDS011;4969;52.304;4.968;2023-09-18T15:12:33;4.65;;;3.53;;
9860;SDS011;4969;52.304;4.968;2023-09-18T15:15:00;3.65;;;3.35;;
9860;SDS011;4969;52.304;4.968;2023-09-18T15:17:26;4.40;;;3.45;;